createdAt,value
2022-12-04T00:02:23.310Z,-2.60
2022-12-04T00:04:53.679Z,-2.60
2022-12-04T00:07:22.987Z,-2.60
2022-12-04T00:09:51.614Z,-2.60
2022-12-04T00:12:20.399Z,-2.60
2022-12-04T00:15:23.512Z,-2.60
2022-12-04T00:17:37.550Z,-2.60
2022-12-04T00:20:09.190Z,-2.60
2022-12-04T00:22:37.764Z,-2.60
2022-12-04T00:25:06.878Z,-2.60
2022-12-04T00:27:35.462Z,-2.50
2022-12-04T00:30:04.084Z,-2.50
2022-12-04T00:32:32.668Z,-2.70
2022-12-04T00:35:01.144Z,-2.70
2022-12-04T00:37:31.142Z,-2.50
2022-12-04T00:39:59.740Z,-2.50
2022-12-04T00:42:28.287Z,-2.40
2022-12-04T00:44:56.863Z,-2.40
2022-12-04T00:47:25.428Z,-2.40
2022-12-04T00:50:03.216Z,-2.40
2022-12-04T00:52:34.302Z,-2.50
2022-12-04T00:55:02.881Z,-2.50
2022-12-04T00:57:31.659Z,-2.40
2022-12-04T01:00:00.250Z,-2.30
2022-12-04T01:02:28.878Z,-2.40
2022-12-04T01:04:57.472Z,-2.40
2022-12-04T01:07:26.146Z,-2.40
2022-12-04T01:09:56.450Z,-2.40
2022-12-04T01:12:25.299Z,-2.40
2022-12-04T01:14:53.845Z,-2.30
2022-12-04T01:17:22.386Z,-2.30
2022-12-04T01:19:51.019Z,-2.30
2022-12-04T01:22:19.550Z,-2.30
2022-12-04T01:24:48.111Z,-2.30
2022-12-04T01:27:18.061Z,-2.30
2022-12-04T01:29:46.597Z,-2.30
2022-12-04T01:32:15.178Z,-2.30
2022-12-04T01:34:43.859Z,-2.30
2022-12-04T01:37:12.436Z,-2.40
2022-12-04T01:39:40.955Z,-2.30
2022-12-04T01:42:14.460Z,-2.30
2022-12-04T01:45:05.880Z,-2.30
2022-12-04T01:47:34.646Z,-2.30
2022-12-04T01:50:03.191Z,-2.30
2022-12-04T01:52:31.823Z,-2.30
2022-12-04T01:55:02.677Z,-2.20
2022-12-04T01:57:33.790Z,-2.30
2022-12-04T02:00:08.841Z,-2.30
2022-12-04T02:02:40.547Z,-2.30
2022-12-04T02:05:11.838Z,-2.30
2022-12-04T02:07:42.669Z,-2.30
2022-12-04T02:10:12.174Z,-2.30
2022-12-04T02:12:48.086Z,-2.30
2022-12-04T02:15:24.454Z,-2.30
2022-12-04T02:18:00.088Z,-2.20
2022-12-04T02:20:34.306Z,-2.20
2022-12-04T02:23:43.619Z,-2.20
2022-12-04T02:26:28.500Z,-2.20
2022-12-04T02:29:04.300Z,-2.20
2022-12-04T02:31:38.226Z,-2.30
2022-12-04T02:34:12.434Z,-2.20
2022-12-04T02:36:49.274Z,-2.00
2022-12-04T02:39:24.407Z,-2.20
2022-12-04T02:41:58.792Z,-2.20
2022-12-04T02:44:32.133Z,-2.20
2022-12-04T02:47:03.784Z,-2.10
2022-12-04T02:49:35.881Z,-2.20
2022-12-04T02:52:08.218Z,-2.10
2022-12-04T02:54:40.016Z,-2.00
2022-12-04T02:57:12.788Z,-2.10
2022-12-04T02:59:45.268Z,-2.10
2022-12-04T03:02:18.702Z,-2.10
2022-12-04T03:04:50.878Z,-2.10
2022-12-04T03:07:35.427Z,-2.10
2022-12-04T03:10:08.262Z,-2.10
2022-12-04T03:12:44.790Z,-2.10
2022-12-04T03:15:20.804Z,-2.10
2022-12-04T03:17:54.688Z,-2.10
2022-12-04T03:20:24.529Z,-2.10
2022-12-04T03:22:57.958Z,-2.10
2022-12-04T03:25:33.434Z,-2.10
2022-12-04T03:28:05.065Z,-2.10
2022-12-04T03:30:40.560Z,-2.10
2022-12-04T03:33:14.246Z,-2.10
2022-12-04T03:35:48.777Z,-2.10
2022-12-04T03:38:23.652Z,-2.10
2022-12-04T03:41:01.166Z,-2.10
2022-12-04T03:43:35.439Z,-2.00
2022-12-04T03:46:11.272Z,-2.00
2022-12-04T03:48:43.989Z,-2.00
2022-12-04T03:51:19.159Z,-2.00
2022-12-04T03:53:54.896Z,-1.90
2022-12-04T03:56:27.777Z,-1.90
2022-12-04T03:59:01.626Z,-1.90
2022-12-04T04:01:39.560Z,-1.90
2022-12-04T04:04:12.776Z,-1.90
2022-12-04T04:06:48.504Z,-1.90
2022-12-04T04:09:20.794Z,-1.90
2022-12-04T04:11:54.494Z,-1.90
2022-12-04T04:14:45.350Z,-1.90
2022-12-04T04:17:38.706Z,-1.90
2022-12-04T04:20:28.342Z,-1.90
2022-12-04T04:23:18.011Z,-1.80
2022-12-04T04:25:48.553Z,-1.90
2022-12-04T04:28:31.500Z,-1.80
2022-12-04T04:31:07.678Z,-1.80
2022-12-04T04:33:43.754Z,-1.80
2022-12-04T04:36:19.340Z,-1.80
2022-12-04T04:38:55.556Z,-1.80
2022-12-04T04:41:32.408Z,-1.80
2022-12-04T04:44:09.825Z,-1.70
2022-12-04T04:46:42.876Z,-1.70
2022-12-04T04:49:15.896Z,-1.70
2022-12-04T04:54:15.948Z,-2.10
2022-12-04T04:56:45.959Z,-1.50
2022-12-04T04:59:15.443Z,-1.60
2022-12-04T05:01:46.464Z,-1.60
2022-12-04T05:04:16.578Z,-1.60
2022-12-04T05:06:45.093Z,-1.60
2022-12-04T05:09:13.625Z,-1.60
2022-12-04T05:11:42.173Z,-1.50
2022-12-04T05:14:10.831Z,-1.60
2022-12-04T05:16:41.069Z,-1.60
2022-12-04T05:19:27.060Z,-1.60
2022-12-04T05:21:57.653Z,-1.60
2022-12-04T05:24:26.283Z,-1.60
2022-12-04T05:26:54.809Z,-1.50
2022-12-04T05:29:23.393Z,-1.50
2022-12-04T05:31:51.981Z,-1.50
2022-12-04T05:34:20.504Z,-1.60
2022-12-04T05:36:49.063Z,-1.60
2022-12-04T05:39:19.238Z,-1.60
2022-12-04T05:41:48.547Z,-1.60
2022-12-04T05:44:17.160Z,-1.50
2022-12-04T05:46:45.860Z,-1.60
2022-12-04T05:49:14.487Z,-1.50
2022-12-04T05:51:43.072Z,-1.50
2022-12-04T05:54:11.692Z,-1.30
2022-12-04T05:56:41.701Z,-1.30
2022-12-04T05:59:10.345Z,-1.30
2022-12-04T06:01:39.058Z,-1.30
2022-12-04T06:04:07.803Z,-1.30
2022-12-04T06:06:36.414Z,-1.30
2022-12-04T06:09:06.224Z,-1.30
2022-12-04T06:11:35.494Z,-1.30
2022-12-04T06:14:07.542Z,-1.30
2022-12-04T06:16:39.581Z,-1.30
2022-12-04T06:19:10.620Z,-1.30
2022-12-04T06:32:03.238Z,-1.30
2022-12-04T06:34:32.615Z,-1.30
2022-12-04T06:37:01.207Z,-1.40
2022-12-04T06:39:29.895Z,-1.40
2022-12-04T06:41:58.465Z,-1.40
2022-12-04T06:44:27.064Z,-1.40
2022-12-04T06:47:00.781Z,-1.40
2022-12-04T06:49:29.945Z,-1.40
2022-12-04T06:51:58.547Z,-1.40
2022-12-04T06:54:27.370Z,-1.40
2022-12-04T06:56:55.933Z,-1.40
2022-12-04T06:59:24.496Z,-1.40
2022-12-04T07:01:53.348Z,-1.40
2022-12-04T07:04:24.851Z,-1.40
2022-12-04T07:06:53.458Z,-1.40
2022-12-04T07:09:22.177Z,-1.30
2022-12-04T07:11:50.794Z,-1.30
2022-12-04T07:14:19.401Z,-1.30
2022-12-04T07:16:48.005Z,-1.30
2022-12-04T07:19:16.682Z,-1.30
2022-12-04T07:21:46.712Z,-1.30
2022-12-04T07:24:17.376Z,-1.30
2022-12-04T07:26:46.323Z,-1.20
2022-12-04T07:29:15.145Z,-1.20
2022-12-04T07:31:44.743Z,-1.20
2022-12-04T07:34:13.493Z,-1.20
2022-12-04T07:36:42.271Z,-1.20
2022-12-04T07:39:12.303Z,-1.20
2022-12-04T07:41:41.742Z,-1.20
2022-12-04T07:44:10.528Z,-1.20
2022-12-04T07:46:39.170Z,-1.10
2022-12-04T07:49:07.851Z,-1.10
2022-12-04T07:54:05.478Z,-1.10
2022-12-04T07:56:35.518Z,-1.10
2022-12-04T07:59:04.219Z,-1.10
2022-12-04T08:01:33.478Z,-1.10
2022-12-04T08:04:03.403Z,-1.10
2022-12-04T08:06:35.305Z,-1.00
2022-12-04T08:09:09.453Z,-1.00
2022-12-04T08:11:40.219Z,-1.00
2022-12-04T08:14:10.038Z,-1.00
2022-12-04T08:16:38.409Z,-1.00
2022-12-04T08:19:07.183Z,-1.00
2022-12-04T08:21:36.598Z,-1.00
2022-12-04T08:24:05.419Z,-1.00
2022-12-04T08:26:34.532Z,-0.90
2022-12-04T08:29:05.631Z,-0.90
2022-12-04T08:31:35.853Z,-0.90
2022-12-04T08:34:06.798Z,-0.90
2022-12-04T08:36:36.267Z,-1.00
2022-12-04T08:39:06.256Z,-1.00
2022-12-04T08:41:35.201Z,-1.00
2022-12-04T08:44:05.883Z,-0.90
2022-12-04T08:46:35.199Z,-0.90
2022-12-04T08:49:07.075Z,-0.90
2022-12-04T08:51:36.126Z,-0.90
2022-12-04T08:54:06.941Z,-0.80
2022-12-04T08:56:37.518Z,-0.90
2022-12-04T08:59:08.310Z,-0.80
2022-12-04T09:01:37.017Z,-0.80
2022-12-04T09:04:06.003Z,-0.80
2022-12-04T09:06:34.633Z,-0.80
2022-12-04T09:09:03.236Z,-0.80
2022-12-04T09:11:33.037Z,-0.80
2022-12-04T09:14:03.508Z,-0.80
2022-12-04T09:16:33.782Z,-0.70
2022-12-04T09:19:02.885Z,-0.70
2022-12-04T09:21:31.531Z,-0.70
2022-12-04T09:24:00.894Z,-0.70
2022-12-04T09:26:31.633Z,-0.70
2022-12-04T09:29:02.861Z,-0.70
2022-12-04T09:31:33.992Z,-0.70
2022-12-04T09:34:03.376Z,-0.60
2022-12-04T09:36:32.079Z,-0.60
2022-12-04T09:39:00.656Z,-0.50
2022-12-04T09:42:03.978Z,-0.60
2022-12-04T09:44:36.436Z,-0.60
2022-12-04T09:47:11.104Z,-0.50
2022-12-04T09:49:43.337Z,-0.50
2022-12-04T09:52:24.870Z,-0.50
2022-12-04T09:54:55.164Z,-0.60
2022-12-04T09:57:29.559Z,-0.60
2022-12-04T09:59:58.904Z,-0.60
2022-12-04T10:02:37.948Z,-0.60
2022-12-04T10:05:09.091Z,-0.50
2022-12-04T10:07:45.488Z,-0.50
2022-12-04T10:10:20.950Z,-0.50
2022-12-04T10:12:58.111Z,-0.60
2022-12-04T10:15:38.824Z,-0.60
2022-12-04T10:18:31.011Z,-0.60
2022-12-04T10:21:11.501Z,-0.60
2022-12-04T10:23:50.211Z,-0.50
2022-12-04T10:26:22.996Z,-0.50
2022-12-04T10:28:56.379Z,-0.50
2022-12-04T10:31:27.579Z,-0.50
2022-12-04T10:34:04.073Z,-0.50
2022-12-04T10:36:36.070Z,-0.50
2022-12-04T10:39:10.762Z,-0.50
2022-12-04T10:41:46.264Z,-0.40
2022-12-04T10:44:16.514Z,-0.50
2022-12-04T10:46:46.497Z,-0.40
2022-12-04T10:49:20.871Z,-0.40
2022-12-04T10:51:50.108Z,-0.40
2022-12-04T10:54:22.807Z,-0.30
2022-12-04T10:56:56.211Z,-0.30
2022-12-04T10:59:25.425Z,-0.30
2022-12-04T11:02:06.880Z,-0.30
2022-12-04T11:04:37.372Z,-0.30
2022-12-04T11:07:08.297Z,-0.30
2022-12-04T11:09:37.044Z,-0.30
2022-12-04T11:12:11.051Z,-0.30
2022-12-04T11:14:44.060Z,-0.30
2022-12-04T11:17:18.395Z,-0.20
2022-12-04T11:19:48.984Z,-0.30
2022-12-04T11:22:20.643Z,-0.30
2022-12-04T11:24:54.286Z,-0.30
2022-12-04T11:27:27.898Z,-0.20
2022-12-04T11:29:57.881Z,-0.20
2022-12-04T11:32:30.507Z,-0.20
2022-12-04T11:35:08.761Z,-0.20
2022-12-04T11:37:45.194Z,-0.20
2022-12-04T11:40:20.475Z,-0.20
2022-12-04T11:43:03.915Z,-0.10
2022-12-04T11:45:33.535Z,-0.10
2022-12-04T11:48:04.877Z,-0.10
2022-12-04T11:50:47.435Z,-0.10
2022-12-04T11:53:20.277Z,0.00
2022-12-04T12:00:44.035Z,0.00
2022-12-04T12:03:17.336Z,0.30
2022-12-04T12:06:04.099Z,0.20
2022-12-04T12:08:45.879Z,0.10
2022-12-04T12:11:27.219Z,0.10
2022-12-04T12:14:05.326Z,0.10
2022-12-04T12:16:50.060Z,0.10
2022-12-04T12:19:43.375Z,0.10
2022-12-04T12:22:29.471Z,0.10
2022-12-04T12:25:07.929Z,0.10
2022-12-04T12:27:59.773Z,0.10
2022-12-04T12:30:32.713Z,0.10
2022-12-04T12:33:12.123Z,0.10
2022-12-04T12:35:46.971Z,0.10
2022-12-04T12:38:22.666Z,0.10
2022-12-04T12:40:59.281Z,0.10
2022-12-04T12:43:31.657Z,0.00
2022-12-04T12:46:07.963Z,0.00
2022-12-04T12:48:44.733Z,0.00
2022-12-04T12:51:29.975Z,-0.10
2022-12-04T12:54:10.838Z,-0.10
2022-12-04T12:56:47.907Z,0.00
2022-12-04T12:59:28.476Z,0.00
2022-12-04T13:02:02.748Z,0.10
2022-12-04T13:04:39.093Z,0.10
2022-12-04T13:07:25.174Z,0.10
2022-12-04T13:10:02.006Z,0.10
2022-12-04T13:12:36.636Z,0.00
2022-12-04T13:15:08.984Z,0.00
2022-12-04T13:17:41.024Z,0.10
2022-12-04T13:20:19.555Z,0.10
2022-12-04T13:22:59.024Z,0.10
2022-12-04T13:25:43.253Z,0.00
2022-12-04T13:28:25.112Z,0.00
2022-12-04T13:31:01.071Z,0.00
2022-12-04T13:33:46.578Z,0.00
2022-12-04T13:36:35.451Z,0.00
2022-12-04T13:39:30.173Z,0.00
2022-12-04T13:42:04.360Z,0.00
2022-12-04T13:44:34.935Z,0.00
2022-12-04T13:47:06.486Z,0.00
2022-12-04T13:49:37.914Z,0.00
2022-12-04T13:52:22.075Z,0.00
2022-12-04T13:54:59.493Z,0.00
2022-12-04T13:57:29.801Z,0.10
2022-12-04T14:00:07.072Z,0.00
2022-12-04T14:02:50.166Z,0.00
2022-12-04T14:05:30.883Z,0.00
2022-12-04T14:08:07.609Z,0.10
2022-12-04T14:10:39.905Z,0.10
2022-12-04T14:13:21.179Z,0.10
2022-12-04T14:15:50.137Z,0.00
2022-12-04T14:18:29.585Z,0.00
2022-12-04T14:21:05.709Z,0.00
2022-12-04T14:23:40.572Z,0.00
2022-12-04T14:26:37.245Z,0.00
2022-12-04T14:29:43.198Z,0.00
2022-12-04T14:32:17.377Z,0.00
2022-12-04T14:34:48.270Z,-0.10
2022-12-04T14:37:26.303Z,0.00
2022-12-04T14:39:57.190Z,0.00
2022-12-04T14:42:28.851Z,0.00
2022-12-04T14:45:01.536Z,0.00
2022-12-04T14:47:45.211Z,0.00
2022-12-04T14:50:28.664Z,0.00
2022-12-04T14:53:05.210Z,0.00
2022-12-04T14:55:42.554Z,0.00
2022-12-04T14:58:34.663Z,-0.10
2022-12-04T15:01:07.601Z,-0.10
2022-12-04T15:03:38.385Z,-0.10
2022-12-04T15:06:09.941Z,-0.10
2022-12-04T15:08:50.903Z,-0.10
2022-12-04T15:11:38.420Z,-0.10
2022-12-04T15:14:14.298Z,-0.10
2022-12-04T15:16:44.608Z,-0.10
2022-12-04T15:19:21.387Z,0.00
2022-12-04T15:21:50.509Z,0.00
2022-12-04T15:24:23.476Z,0.00
2022-12-04T15:26:53.780Z,0.00
2022-12-04T15:29:27.227Z,0.00
2022-12-04T15:31:59.750Z,0.00
2022-12-04T15:34:37.579Z,0.00
2022-12-04T15:37:08.530Z,0.00
2022-12-04T15:39:38.310Z,0.00
2022-12-04T15:42:07.568Z,-0.10
2022-12-04T15:44:36.741Z,-0.10
2022-12-04T15:47:21.758Z,-0.10
2022-12-04T15:49:50.846Z,0.00
2022-12-04T15:52:21.097Z,-0.10
2022-12-04T15:54:55.357Z,-0.10
2022-12-04T15:57:29.174Z,-0.10
2022-12-04T16:00:01.224Z,-0.10
2022-12-04T16:02:33.916Z,0.00
2022-12-04T16:05:13.483Z,0.00
2022-12-04T16:07:50.518Z,0.00
2022-12-04T16:10:24.488Z,0.00
2022-12-04T16:12:57.434Z,0.00
2022-12-04T16:15:28.112Z,0.00
2022-12-04T16:17:58.290Z,0.00
2022-12-04T16:20:26.771Z,0.00
2022-12-04T16:22:56.579Z,0.00
2022-12-04T16:25:24.960Z,0.00
2022-12-04T16:27:53.339Z,0.00
2022-12-04T16:30:21.877Z,0.00
2022-12-04T16:32:50.303Z,0.00
2022-12-04T16:35:20.428Z,-0.10
2022-12-04T16:37:48.899Z,-0.10
2022-12-04T16:40:17.622Z,-0.10
2022-12-04T16:42:46.239Z,-0.10
2022-12-04T16:45:26.069Z,-0.10
2022-12-04T16:47:54.606Z,-0.10
2022-12-04T16:50:24.685Z,-0.10
2022-12-04T16:52:53.270Z,-0.10
2022-12-04T16:55:25.665Z,-0.10
2022-12-04T16:57:54.142Z,-0.10
2022-12-04T17:00:22.644Z,-0.10
2022-12-04T17:02:51.318Z,-0.10
2022-12-04T17:05:21.478Z,-0.20
2022-12-04T17:07:51.554Z,-0.10
2022-12-04T17:10:24.055Z,-0.10
2022-12-04T17:12:54.063Z,-0.10
2022-12-04T17:15:22.870Z,-0.10
2022-12-04T17:17:52.023Z,-0.10
2022-12-04T17:20:21.768Z,0.00
2022-12-04T17:22:51.498Z,-0.10
2022-12-04T17:25:20.065Z,-0.10
2022-12-04T17:27:48.502Z,-0.10
2022-12-04T17:30:17.833Z,-0.10
2022-12-04T17:32:47.731Z,-0.10
2022-12-04T17:35:16.143Z,-0.20
2022-12-04T17:37:45.638Z,-0.10
2022-12-04T17:40:19.189Z,-0.10
2022-12-04T17:42:47.642Z,-0.10
2022-12-04T17:45:17.060Z,-0.10
2022-12-04T17:47:45.480Z,0.00
2022-12-04T17:50:14.026Z,0.00
2022-12-04T17:52:42.442Z,0.00
2022-12-04T17:55:11.115Z,0.00
2022-12-04T17:57:41.254Z,0.00
2022-12-04T18:00:10.808Z,0.00
2022-12-04T18:02:42.716Z,0.00
2022-12-04T18:05:11.812Z,-0.10
2022-12-04T18:07:40.233Z,-0.10
2022-12-04T18:10:09.615Z,-0.10
2022-12-04T18:12:38.052Z,-0.20
2022-12-04T18:15:08.902Z,-0.20
2022-12-04T18:17:38.849Z,-0.10
2022-12-04T18:20:10.076Z,-0.20
2022-12-04T18:22:38.928Z,-0.10
2022-12-04T18:25:09.144Z,-0.10
2022-12-04T18:27:41.685Z,-0.10
2022-12-04T18:30:12.616Z,-0.10
2022-12-04T18:32:41.032Z,-0.20
2022-12-04T18:35:10.012Z,-0.10
2022-12-04T18:37:38.445Z,-0.10
2022-12-04T18:40:08.712Z,-0.10
2022-12-04T18:42:37.594Z,-0.10
2022-12-04T18:45:06.836Z,-0.10
2022-12-04T18:47:36.682Z,-0.10
2022-12-04T18:50:05.402Z,-0.10
2022-12-04T18:52:38.481Z,-0.10
2022-12-04T18:55:07.268Z,0.00
2022-12-04T18:57:35.770Z,-0.10
2022-12-04T19:00:06.040Z,-0.10
2022-12-04T19:02:36.141Z,-0.10
2022-12-04T19:05:04.702Z,-0.10
2022-12-04T19:07:33.326Z,-0.10
2022-12-04T19:10:10.788Z,-0.10
2022-12-04T19:12:41.047Z,0.00
2022-12-04T19:15:09.996Z,0.10
2022-12-04T19:17:39.795Z,0.10
2022-12-04T19:20:08.860Z,0.10
2022-12-04T19:22:37.274Z,0.00
2022-12-04T19:25:06.914Z,0.00
2022-12-04T19:27:35.332Z,0.00
2022-12-04T19:30:03.876Z,0.00
2022-12-04T19:32:33.646Z,0.10
2022-12-04T19:35:03.216Z,0.00
2022-12-04T19:37:31.706Z,0.10
2022-12-04T19:40:00.154Z,0.10
2022-12-04T19:42:31.925Z,0.10
2022-12-04T19:45:00.357Z,0.00
2022-12-04T19:47:28.791Z,-0.10
2022-12-04T19:49:57.834Z,0.00
2022-12-04T19:52:27.913Z,0.00
2022-12-04T19:54:56.452Z,0.00
2022-12-04T19:57:24.819Z,0.00
2022-12-04T19:59:53.213Z,0.00
2022-12-04T20:02:21.773Z,0.00
2022-12-04T20:04:50.297Z,0.00
2022-12-04T20:07:18.696Z,0.00
2022-12-04T20:09:52.118Z,-0.10
2022-12-04T20:12:21.269Z,0.00
2022-12-04T20:14:49.635Z,0.00
2022-12-04T20:17:18.096Z,0.00
2022-12-04T20:19:46.450Z,-0.10
2022-12-04T20:22:14.817Z,0.00
2022-12-04T20:24:43.251Z,0.00
2022-12-04T20:27:13.033Z,0.00
2022-12-04T20:29:41.179Z,0.00
2022-12-04T20:32:09.629Z,0.00
2022-12-04T20:34:43.321Z,0.00
2022-12-04T20:37:12.587Z,0.00
2022-12-04T20:39:41.449Z,0.00
2022-12-04T20:42:09.904Z,0.00
2022-12-04T20:44:39.741Z,0.00
2022-12-04T20:47:08.430Z,-0.10
2022-12-04T20:49:37.248Z,-0.10
2022-12-04T20:52:06.019Z,-0.10
2022-12-04T20:54:40.992Z,-0.10
2022-12-04T20:57:10.159Z,-0.10
2022-12-04T20:59:41.229Z,0.00
2022-12-04T21:02:11.542Z,-0.10
2022-12-04T21:04:40.339Z,-0.10
2022-12-04T21:07:09.300Z,-0.10
2022-12-04T21:09:37.741Z,-0.10
2022-12-04T21:12:27.440Z,0.00
2022-12-04T21:15:15.481Z,-0.10
2022-12-04T21:17:44.109Z,-0.10
2022-12-04T21:20:13.407Z,-0.10
2022-12-04T21:22:41.947Z,0.00
2022-12-04T21:25:10.978Z,-0.10
2022-12-04T21:27:39.577Z,-0.10
2022-12-04T21:30:11.122Z,0.00
2022-12-04T21:32:39.640Z,0.00
2022-12-04T21:35:08.764Z,-0.10
2022-12-04T21:37:37.323Z,-0.10
2022-12-04T21:40:06.966Z,-0.10
2022-12-04T21:42:35.623Z,-0.10
2022-12-04T21:45:06.211Z,0.00
2022-12-04T21:47:37.310Z,0.00
2022-12-04T21:50:06.921Z,0.00
2022-12-04T21:52:35.499Z,0.00
2022-12-04T21:55:05.202Z,0.00
2022-12-04T21:57:33.464Z,-0.10
2022-12-04T22:00:02.186Z,-0.10
2022-12-04T22:02:52.175Z,-0.10
2022-12-04T22:05:20.781Z,-0.10
2022-12-04T22:07:49.709Z,-0.10
2022-12-04T22:10:18.440Z,0.00
2022-12-04T22:12:50.729Z,-0.10
2022-12-04T22:15:20.011Z,-0.10
2022-12-04T22:17:48.505Z,0.00
2022-12-04T22:20:18.670Z,0.00
2022-12-04T22:22:47.364Z,-0.10
2022-12-04T22:25:16.048Z,-0.10
2022-12-04T22:27:44.605Z,-0.10
2022-12-04T22:30:14.157Z,-0.10
2022-12-04T22:32:42.778Z,-0.10
2022-12-04T22:35:11.735Z,-0.10
2022-12-04T22:37:44.603Z,-0.20
2022-12-04T22:40:14.264Z,-0.20
2022-12-04T22:42:43.017Z,-0.10
2022-12-04T22:45:12.421Z,-0.10
2022-12-04T22:47:40.954Z,-0.10
2022-12-04T22:50:10.430Z,-0.10
2022-12-04T22:52:39.104Z,-0.10
2022-12-04T22:55:09.612Z,-0.10
2022-12-04T22:57:38.099Z,-0.20
2022-12-04T23:00:09.485Z,-0.20
2022-12-04T23:02:38.097Z,-0.20
2022-12-04T23:05:06.943Z,-0.20
2022-12-04T23:07:35.488Z,-0.20
2022-12-04T23:10:04.123Z,-0.10
2022-12-04T23:12:34.101Z,-0.10
2022-12-04T23:15:02.632Z,-0.10
2022-12-04T23:17:32.095Z,-0.10
2022-12-04T23:20:00.640Z,-0.20
2022-12-04T23:22:29.133Z,-0.20
2022-12-04T23:24:57.706Z,-0.20
2022-12-04T23:27:26.270Z,-0.20
2022-12-04T23:29:56.148Z,-0.20
2022-12-04T23:32:24.843Z,-0.20
2022-12-04T23:34:54.144Z,-0.20
2022-12-04T23:37:22.638Z,-0.20
2022-12-04T23:39:51.218Z,-0.20
2022-12-04T23:42:19.760Z,-0.20
2022-12-04T23:44:48.331Z,-0.20
2022-12-04T23:47:18.306Z,-0.20
2022-12-04T23:49:46.904Z,-0.20
2022-12-04T23:52:15.418Z,-0.20
2022-12-04T23:54:43.964Z,-0.20
2022-12-04T23:57:12.470Z,-0.20
2022-12-04T23:59:41.156Z,-0.20
